sensor_id;sensor_type;location;lat;lon;timestamp;P1;durP1;ratioP1;P2;durP2;ratioP2
31990;SDS011;18508;49.386;8.370;2023-04-24T00:00:46;2.40;;;1.20;;
31990;SDS011;18508;49.386;8.370;2023-04-24T00:03:14;3.92;;;1.40;;
31990;SDS011;18508;49.386;8.370;2023-04-24T00:05:47;3.13;;;1.50;;
31990;SDS011;18508;49.386;8.370;2023-04-24T00:08:15;3.25;;;1.48;;
31990;SDS011;18508;49.386;8.370;2023-04-24T00:10:45;2.28;;;1.40;;
31990;SDS011;18508;49.386;8.370;2023-04-24T00:13:15;2.90;;;1.45;;
31990;SDS011;18508;49.386;8.370;2023-04-24T00:15:44;2.65;;;1.35;;
31990;SDS011;18508;49.386;8.370;2023-04-24T00:18:12;3.15;;;1.55;;
31990;SDS011;18508;49.386;8.370;2023-04-24T00:20:40;4.00;;;1.65;;
31990;SDS011;18508;49.386;8.370;2023-04-24T00:23:09;3.38;;;1.55;;
31990;SDS011;18508;49.386;8.370;2023-04-24T00:25:40;2.65;;;1.10;;
31990;SDS011;18508;49.386;8.370;2023-04-24T00:28:09;3.95;;;1.60;;
31990;SDS011;18508;49.386;8.370;2023-04-24T00:30:38;3.30;;;1.42;;
31990;SDS011;18508;49.386;8.370;2023-04-24T00:33:06;3.25;;;1.40;;
31990;SDS011;18508;49.386;8.370;2023-04-24T00:35:34;4.35;;;1.50;;
31990;SDS011;18508;49.386;8.370;2023-04-24T00:38:02;3.92;;;1.17;;
31990;SDS011;18508;49.386;8.370;2023-04-24T00:40:33;6.22;;;1.38;;
31990;SDS011;18508;49.386;8.370;2023-04-24T00:43:02;2.67;;;1.20;;
31990;SDS011;18508;49.386;8.370;2023-04-24T00:45:31;3.97;;;1.48;;
31990;SDS011;18508;49.386;8.370;2023-04-24T00:48:01;3.55;;;1.25;;
31990;SDS011;18508;49.386;8.370;2023-04-24T00:50:29;3.45;;;1.23;;
31990;SDS011;18508;49.386;8.370;2023-04-24T00:52:58;2.97;;;1.25;;
31990;SDS011;18508;49.386;8.370;2023-04-24T00:55:27;2.40;;;1.20;;
31990;SDS011;18508;49.386;8.370;2023-04-24T00:57:56;2.47;;;1.35;;
31990;SDS011;18508;49.386;8.370;2023-04-24T01:00:24;3.53;;;1.52;;
31990;SDS011;18508;49.386;8.370;2023-04-24T01:02:55;3.40;;;1.67;;
31990;SDS011;18508;49.386;8.370;2023-04-24T01:05:29;2.97;;;1.40;;
31990;SDS011;18508;49.386;8.370;2023-04-24T01:07:59;2.60;;;1.50;;
31990;SDS011;18508;49.386;8.370;2023-04-24T01:10:29;3.58;;;1.65;;
31990;SDS011;18508;49.386;8.370;2023-04-24T01:12:58;3.20;;;1.60;;
31990;SDS011;18508;49.386;8.370;2023-04-24T01:15:26;4.57;;;1.60;;
31990;SDS011;18508;49.386;8.370;2023-04-24T01:17:58;4.30;;;1.50;;
31990;SDS011;18508;49.386;8.370;2023-04-24T01:20:28;3.63;;;1.80;;
31990;SDS011;18508;49.386;8.370;2023-04-24T01:22:59;3.40;;;1.98;;
31990;SDS011;18508;49.386;8.370;2023-04-24T01:25:29;5.70;;;1.58;;
31990;SDS011;18508;49.386;8.370;2023-04-24T01:27:58;3.60;;;1.50;;
31990;SDS011;18508;49.386;8.370;2023-04-24T01:30:27;2.20;;;1.50;;
31990;SDS011;18508;49.386;8.370;2023-04-24T01:32:56;4.50;;;2.35;;
31990;SDS011;18508;49.386;8.370;2023-04-24T01:35:26;4.70;;;1.63;;
31990;SDS011;18508;49.386;8.370;2023-04-24T01:37:56;3.22;;;1.75;;
31990;SDS011;18508;49.386;8.370;2023-04-24T01:40:26;3.40;;;1.60;;
31990;SDS011;18508;49.386;8.370;2023-04-24T01:42:55;5.60;;;1.67;;
31990;SDS011;18508;49.386;8.370;2023-04-24T01:45:27;3.75;;;1.73;;
31990;SDS011;18508;49.386;8.370;2023-04-24T01:47:55;6.30;;;1.65;;
31990;SDS011;18508;49.386;8.370;2023-04-24T01:50:24;2.92;;;1.70;;
31990;SDS011;18508;49.386;8.370;2023-04-24T01:52:52;3.25;;;1.40;;
31990;SDS011;18508;49.386;8.370;2023-04-24T01:55:21;4.63;;;2.00;;
31990;SDS011;18508;49.386;8.370;2023-04-24T01:57:50;3.25;;;1.55;;
31990;SDS011;18508;49.386;8.370;2023-04-24T02:00:21;5.20;;;1.42;;
31990;SDS011;18508;49.386;8.370;2023-04-24T02:02:51;3.85;;;1.52;;
31990;SDS011;18508;49.386;8.370;2023-04-24T02:05:19;3.42;;;1.67;;
31990;SDS011;18508;49.386;8.370;2023-04-24T02:07:47;2.45;;;1.27;;
31990;SDS011;18508;49.386;8.370;2023-04-24T02:10:15;3.22;;;1.40;;
31990;SDS011;18508;49.386;8.370;2023-04-24T02:12:43;2.83;;;1.50;;
31990;SDS011;18508;49.386;8.370;2023-04-24T02:15:15;4.25;;;1.50;;
31990;SDS011;18508;49.386;8.370;2023-04-24T02:17:44;4.25;;;1.10;;
31990;SDS011;18508;49.386;8.370;2023-04-24T02:20:13;3.30;;;1.13;;
31990;SDS011;18508;49.386;8.370;2023-04-24T02:22:44;2.58;;;1.35;;
31990;SDS011;18508;49.386;8.370;2023-04-24T02:25:12;2.72;;;1.17;;
31990;SDS011;18508;49.386;8.370;2023-04-24T02:27:42;5.80;;;1.30;;
31990;SDS011;18508;49.386;8.370;2023-04-24T02:30:13;6.85;;;1.42;;
31990;SDS011;18508;49.386;8.370;2023-04-24T02:32:41;3.38;;;1.38;;
31990;SDS011;18508;49.386;8.370;2023-04-24T02:35:10;5.65;;;1.60;;
31990;SDS011;18508;49.386;8.370;2023-04-24T02:37:40;2.83;;;1.42;;
31990;SDS011;18508;49.386;8.370;2023-04-24T02:40:08;5.22;;;1.50;;
31990;SDS011;18508;49.386;8.370;2023-04-24T02:42:36;3.72;;;1.48;;
31990;SDS011;18508;49.386;8.370;2023-04-24T02:45:05;3.35;;;1.58;;
31990;SDS011;18508;49.386;8.370;2023-04-24T02:47:36;3.22;;;1.40;;
31990;SDS011;18508;49.386;8.370;2023-04-24T02:50:05;3.30;;;1.65;;
31990;SDS011;18508;49.386;8.370;2023-04-24T02:52:36;4.03;;;1.90;;
31990;SDS011;18508;49.386;8.370;2023-04-24T02:55:05;3.90;;;1.85;;
31990;SDS011;18508;49.386;8.370;2023-04-24T02:57:34;5.47;;;2.03;;
31990;SDS011;18508;49.386;8.370;2023-04-24T03:00:03;3.88;;;2.05;;
31990;SDS011;18508;49.386;8.370;2023-04-24T03:02:33;5.60;;;2.00;;
31990;SDS011;18508;49.386;8.370;2023-04-24T03:05:04;4.68;;;2.17;;
31990;SDS011;18508;49.386;8.370;2023-04-24T03:07:34;3.67;;;2.08;;
31990;SDS011;18508;49.386;8.370;2023-04-24T03:10:03;3.25;;;2.17;;
31990;SDS011;18508;49.386;8.370;2023-04-24T03:12:33;4.10;;;2.30;;
31990;SDS011;18508;49.386;8.370;2023-04-24T03:15:01;3.30;;;2.10;;
31990;SDS011;18508;49.386;8.370;2023-04-24T03:17:29;5.20;;;2.42;;
31990;SDS011;18508;49.386;8.370;2023-04-24T03:19:58;3.95;;;1.90;;
31990;SDS011;18508;49.386;8.370;2023-04-24T03:22:27;4.35;;;1.98;;
31990;SDS011;18508;49.386;8.370;2023-04-24T03:24:56;2.53;;;1.50;;
31990;SDS011;18508;49.386;8.370;2023-04-24T03:27:25;3.75;;;1.80;;
31990;SDS011;18508;49.386;8.370;2023-04-24T03:29:54;3.33;;;1.77;;
31990;SDS011;18508;49.386;8.370;2023-04-24T03:32:22;3.13;;;1.85;;
31990;SDS011;18508;49.386;8.370;2023-04-24T03:34:51;5.03;;;1.75;;
31990;SDS011;18508;49.386;8.370;2023-04-24T03:37:19;4.40;;;2.00;;
31990;SDS011;18508;49.386;8.370;2023-04-24T03:39:49;6.65;;;2.20;;
31990;SDS011;18508;49.386;8.370;2023-04-24T03:42:17;3.40;;;2.00;;
31990;SDS011;18508;49.386;8.370;2023-04-24T03:44:46;3.13;;;2.03;;
31990;SDS011;18508;49.386;8.370;2023-04-24T03:47:17;4.38;;;2.60;;
31990;SDS011;18508;49.386;8.370;2023-04-24T03:49:45;3.85;;;2.30;;
31990;SDS011;18508;49.386;8.370;2023-04-24T03:52:13;3.42;;;2.25;;
31990;SDS011;18508;49.386;8.370;2023-04-24T03:54:42;3.35;;;2.20;;
31990;SDS011;18508;49.386;8.370;2023-04-24T03:57:11;3.70;;;2.10;;
31990;SDS011;18508;49.386;8.370;2023-04-24T03:59:39;3.55;;;1.70;;
31990;SDS011;18508;49.386;8.370;2023-04-24T04:02:08;5.43;;;2.03;;
31990;SDS011;18508;49.386;8.370;2023-04-24T04:04:36;3.97;;;2.08;;
31990;SDS011;18508;49.386;8.370;2023-04-24T04:07:04;5.30;;;2.30;;
31990;SDS011;18508;49.386;8.370;2023-04-24T04:09:34;4.40;;;2.60;;
31990;SDS011;18508;49.386;8.370;2023-04-24T04:12:02;4.05;;;2.40;;
31990;SDS011;18508;49.386;8.370;2023-04-24T04:14:32;4.50;;;2.97;;
31990;SDS011;18508;49.386;8.370;2023-04-24T04:16:59;4.05;;;2.33;;
31990;SDS011;18508;49.386;8.370;2023-04-24T04:19:28;4.63;;;2.78;;
31990;SDS011;18508;49.386;8.370;2023-04-24T04:21:57;5.00;;;3.22;;
31990;SDS011;18508;49.386;8.370;2023-04-24T04:24:25;4.90;;;2.88;;
31990;SDS011;18508;49.386;8.370;2023-04-24T04:26:55;4.82;;;3.00;;
31990;SDS011;18508;49.386;8.370;2023-04-24T04:29:24;6.43;;;2.65;;
31990;SDS011;18508;49.386;8.370;2023-04-24T04:31:56;6.68;;;2.90;;
31990;SDS011;18508;49.386;8.370;2023-04-24T04:34:24;4.70;;;2.30;;
31990;SDS011;18508;49.386;8.370;2023-04-24T04:36:53;5.50;;;2.75;;
31990;SDS011;18508;49.386;8.370;2023-04-24T04:39:22;4.35;;;2.88;;
31990;SDS011;18508;49.386;8.370;2023-04-24T04:41:50;5.68;;;2.85;;
31990;SDS011;18508;49.386;8.370;2023-04-24T04:44:19;5.28;;;2.95;;
31990;SDS011;18508;49.386;8.370;2023-04-24T04:46:48;5.10;;;3.17;;
31990;SDS011;18508;49.386;8.370;2023-04-24T04:49:20;4.40;;;2.97;;
31990;SDS011;18508;49.386;8.370;2023-04-24T04:51:51;5.32;;;3.08;;
31990;SDS011;18508;49.386;8.370;2023-04-24T04:54:20;7.25;;;4.18;;
31990;SDS011;18508;49.386;8.370;2023-04-24T04:56:49;4.65;;;2.90;;
31990;SDS011;18508;49.386;8.370;2023-04-24T04:59:23;4.50;;;2.83;;
31990;SDS011;18508;49.386;8.370;2023-04-24T05:01:53;4.68;;;2.50;;
31990;SDS011;18508;49.386;8.370;2023-04-24T05:04:23;4.55;;;2.83;;
31990;SDS011;18508;49.386;8.370;2023-04-24T05:06:53;4.38;;;2.88;;
31990;SDS011;18508;49.386;8.370;2023-04-24T05:09:21;5.03;;;3.22;;
31990;SDS011;18508;49.386;8.370;2023-04-24T05:11:49;7.22;;;2.83;;
31990;SDS011;18508;49.386;8.370;2023-04-24T05:14:20;4.63;;;3.08;;
31990;SDS011;18508;49.386;8.370;2023-04-24T05:16:49;4.50;;;2.90;;
31990;SDS011;18508;49.386;8.370;2023-04-24T05:19:17;4.53;;;2.97;;
31990;SDS011;18508;49.386;8.370;2023-04-24T05:21:48;4.97;;;3.10;;
31990;SDS011;18508;49.386;8.370;2023-04-24T05:24:16;6.70;;;2.92;;
31990;SDS011;18508;49.386;8.370;2023-04-24T05:26:44;6.85;;;3.90;;
31990;SDS011;18508;49.386;8.370;2023-04-24T05:29:14;8.48;;;3.90;;
31990;SDS011;18508;49.386;8.370;2023-04-24T05:31:45;7.15;;;3.10;;
31990;SDS011;18508;49.386;8.370;2023-04-24T05:34:13;5.53;;;3.05;;
31990;SDS011;18508;49.386;8.370;2023-04-24T05:36:44;6.00;;;3.30;;
31990;SDS011;18508;49.386;8.370;2023-04-24T05:39:14;5.60;;;3.20;;
31990;SDS011;18508;49.386;8.370;2023-04-24T05:44:16;5.47;;;3.38;;
31990;SDS011;18508;49.386;8.370;2023-04-24T05:46:46;5.55;;;3.10;;
31990;SDS011;18508;49.386;8.370;2023-04-24T05:49:14;6.35;;;3.17;;
31990;SDS011;18508;49.386;8.370;2023-04-24T05:51:43;5.45;;;3.03;;
31990;SDS011;18508;49.386;8.370;2023-04-24T05:54:16;7.40;;;2.90;;
31990;SDS011;18508;49.386;8.370;2023-04-24T05:56:51;5.28;;;3.15;;
31990;SDS011;18508;49.386;8.370;2023-04-24T05:59:21;6.60;;;3.42;;
31990;SDS011;18508;49.386;8.370;2023-04-24T06:01:51;6.22;;;3.88;;
31990;SDS011;18508;49.386;8.370;2023-04-24T06:04:21;5.50;;;3.60;;
31990;SDS011;18508;49.386;8.370;2023-04-24T06:06:51;7.22;;;3.10;;
31990;SDS011;18508;49.386;8.370;2023-04-24T06:09:31;5.85;;;3.83;;
31990;SDS011;18508;49.386;8.370;2023-04-24T06:12:02;6.55;;;4.25;;
31990;SDS011;18508;49.386;8.370;2023-04-24T06:14:31;8.75;;;3.78;;
31990;SDS011;18508;49.386;8.370;2023-04-24T06:17:02;7.18;;;3.70;;
31990;SDS011;18508;49.386;8.370;2023-04-24T06:19:30;5.93;;;3.92;;
31990;SDS011;18508;49.386;8.370;2023-04-24T06:21:59;5.93;;;3.85;;
31990;SDS011;18508;49.386;8.370;2023-04-24T06:24:29;5.95;;;3.22;;
31990;SDS011;18508;49.386;8.370;2023-04-24T06:26:57;6.43;;;3.40;;
31990;SDS011;18508;49.386;8.370;2023-04-24T06:29:27;6.90;;;3.80;;
31990;SDS011;18508;49.386;8.370;2023-04-24T06:31:56;7.95;;;3.53;;
31990;SDS011;18508;49.386;8.370;2023-04-24T06:34:24;5.95;;;3.80;;
31990;SDS011;18508;49.386;8.370;2023-04-24T06:36:55;2.63;;;1.33;;
31990;SDS011;18508;49.386;8.370;2023-04-24T06:39:25;2.35;;;1.25;;
31990;SDS011;18508;49.386;8.370;2023-04-24T06:41:55;2.22;;;1.20;;
31990;SDS011;18508;49.386;8.370;2023-04-24T06:44:27;5.15;;;2.13;;
31990;SDS011;18508;49.386;8.370;2023-04-24T06:46:56;5.45;;;3.33;;
31990;SDS011;18508;49.386;8.370;2023-04-24T06:49:24;4.63;;;2.30;;
31990;SDS011;18508;49.386;8.370;2023-04-24T06:51:55;5.75;;;1.80;;
31990;SDS011;18508;49.386;8.370;2023-04-24T06:54:24;2.30;;;1.45;;
31990;SDS011;18508;49.386;8.370;2023-04-24T06:56:52;2.83;;;1.55;;
31990;SDS011;18508;49.386;8.370;2023-04-24T06:59:22;3.90;;;1.13;;
31990;SDS011;18508;49.386;8.370;2023-04-24T07:01:52;2.00;;;1.20;;
31990;SDS011;18508;49.386;8.370;2023-04-24T07:04:21;2.25;;;1.10;;
31990;SDS011;18508;49.386;8.370;2023-04-24T07:06:51;2.95;;;1.58;;
31990;SDS011;18508;49.386;8.370;2023-04-24T07:09:21;2.90;;;1.23;;
31990;SDS011;18508;49.386;8.370;2023-04-24T07:11:49;2.50;;;1.20;;
31990;SDS011;18508;49.386;8.370;2023-04-24T07:14:18;3.25;;;1.50;;
31990;SDS011;18508;49.386;8.370;2023-04-24T07:16:48;2.25;;;1.30;;
31990;SDS011;18508;49.386;8.370;2023-04-24T07:19:17;3.58;;;1.52;;
31990;SDS011;18508;49.386;8.370;2023-04-24T07:21:45;2.28;;;1.30;;
31990;SDS011;18508;49.386;8.370;2023-04-24T07:24:15;2.70;;;1.42;;
31990;SDS011;18508;49.386;8.370;2023-04-24T07:26:45;2.67;;;1.20;;
31990;SDS011;18508;49.386;8.370;2023-04-24T07:29:19;3.20;;;1.42;;
31990;SDS011;18508;49.386;8.370;2023-04-24T07:31:50;2.30;;;1.30;;
31990;SDS011;18508;49.386;8.370;2023-04-24T07:34:23;1.92;;;1.40;;
31990;SDS011;18508;49.386;8.370;2023-04-24T07:36:51;3.35;;;1.95;;
31990;SDS011;18508;49.386;8.370;2023-04-24T07:39:20;2.70;;;1.90;;
31990;SDS011;18508;49.386;8.370;2023-04-24T07:41:48;2.80;;;1.77;;
31990;SDS011;18508;49.386;8.370;2023-04-24T07:44:16;3.67;;;1.92;;
31990;SDS011;18508;49.386;8.370;2023-04-24T07:46:44;3.42;;;1.92;;
31990;SDS011;18508;49.386;8.370;2023-04-24T07:49:14;3.13;;;1.50;;
31990;SDS011;18508;49.386;8.370;2023-04-24T07:51:45;3.78;;;1.67;;
31990;SDS011;18508;49.386;8.370;2023-04-24T07:54:14;2.90;;;1.75;;
31990;SDS011;18508;49.386;8.370;2023-04-24T07:56:43;3.45;;;1.67;;
31990;SDS011;18508;49.386;8.370;2023-04-24T07:59:12;3.33;;;1.70;;
31990;SDS011;18508;49.386;8.370;2023-04-24T08:01:40;4.68;;;2.00;;
31990;SDS011;18508;49.386;8.370;2023-04-24T08:04:08;3.58;;;1.60;;
31990;SDS011;18508;49.386;8.370;2023-04-24T08:06:39;2.85;;;1.45;;
31990;SDS011;18508;49.386;8.370;2023-04-24T08:09:07;3.20;;;1.40;;
31990;SDS011;18508;49.386;8.370;2023-04-24T08:11:36;5.28;;;1.52;;
31990;SDS011;18508;49.386;8.370;2023-04-24T08:14:05;2.88;;;1.38;;
31990;SDS011;18508;49.386;8.370;2023-04-24T08:16:33;3.83;;;1.67;;
31990;SDS011;18508;49.386;8.370;2023-04-24T08:19:02;6.05;;;1.60;;
31990;SDS011;18508;49.386;8.370;2023-04-24T08:21:30;4.45;;;1.92;;
31990;SDS011;18508;49.386;8.370;2023-04-24T08:24:02;2.83;;;1.45;;
31990;SDS011;18508;49.386;8.370;2023-04-24T08:26:34;4.13;;;1.50;;
31990;SDS011;18508;49.386;8.370;2023-04-24T08:29:02;2.50;;;1.40;;
31990;SDS011;18508;49.386;8.370;2023-04-24T08:31:30;2.58;;;1.50;;
31990;SDS011;18508;49.386;8.370;2023-04-24T08:34:01;3.22;;;1.73;;
31990;SDS011;18508;49.386;8.370;2023-04-24T08:36:29;3.22;;;1.63;;
31990;SDS011;18508;49.386;8.370;2023-04-24T08:39:14;2.70;;;1.40;;
31990;SDS011;18508;49.386;8.370;2023-04-24T08:41:43;4.15;;;1.98;;
31990;SDS011;18508;49.386;8.370;2023-04-24T08:44:12;2.90;;;1.70;;
31990;SDS011;18508;49.386;8.370;2023-04-24T08:46:42;2.83;;;1.92;;
31990;SDS011;18508;49.386;8.370;2023-04-24T08:49:14;2.90;;;1.85;;
31990;SDS011;18508;49.386;8.370;2023-04-24T08:51:43;3.55;;;2.08;;
31990;SDS011;18508;49.386;8.370;2023-04-24T08:54:14;3.05;;;1.60;;
31990;SDS011;18508;49.386;8.370;2023-04-24T08:56:44;3.95;;;2.08;;
31990;SDS011;18508;49.386;8.370;2023-04-24T08:59:17;2.88;;;1.75;;
31990;SDS011;18508;49.386;8.370;2023-04-24T09:01:47;4.15;;;2.08;;
31990;SDS011;18508;49.386;8.370;2023-04-24T09:04:17;2.63;;;1.60;;
31990;SDS011;18508;49.386;8.370;2023-04-24T09:06:51;3.33;;;1.90;;
31990;SDS011;18508;49.386;8.370;2023-04-24T09:09:25;4.18;;;1.70;;
31990;SDS011;18508;49.386;8.370;2023-04-24T09:11:53;4.32;;;1.73;;
31990;SDS011;18508;49.386;8.370;2023-04-24T09:14:22;2.97;;;1.45;;
31990;SDS011;18508;49.386;8.370;2023-04-24T09:16:52;2.92;;;1.75;;
31990;SDS011;18508;49.386;8.370;2023-04-24T09:19:21;3.13;;;1.88;;
31990;SDS011;18508;49.386;8.370;2023-04-24T09:21:50;3.28;;;1.73;;
31990;SDS011;18508;49.386;8.370;2023-04-24T09:24:21;4.85;;;2.30;;
31990;SDS011;18508;49.386;8.370;2023-04-24T09:26:57;4.05;;;2.00;;
31990;SDS011;18508;49.386;8.370;2023-04-24T09:29:28;3.33;;;1.90;;
31990;SDS011;18508;49.386;8.370;2023-04-24T09:31:58;3.65;;;1.88;;
31990;SDS011;18508;49.386;8.370;2023-04-24T09:34:27;3.65;;;2.10;;
31990;SDS011;18508;49.386;8.370;2023-04-24T09:36:57;3.53;;;1.90;;
31990;SDS011;18508;49.386;8.370;2023-04-24T09:39:28;2.97;;;1.90;;
31990;SDS011;18508;49.386;8.370;2023-04-24T09:41:58;3.25;;;2.00;;
31990;SDS011;18508;49.386;8.370;2023-04-24T09:44:34;3.17;;;1.90;;
31990;SDS011;18508;49.386;8.370;2023-04-24T09:47:02;3.95;;;2.55;;
31990;SDS011;18508;49.386;8.370;2023-04-24T09:49:37;3.88;;;2.00;;
31990;SDS011;18508;49.386;8.370;2023-04-24T09:52:08;4.10;;;1.70;;
31990;SDS011;18508;49.386;8.370;2023-04-24T09:54:39;3.05;;;2.22;;
31990;SDS011;18508;49.386;8.370;2023-04-24T09:57:09;3.13;;;1.95;;
31990;SDS011;18508;49.386;8.370;2023-04-24T09:59:41;4.70;;;2.00;;
31990;SDS011;18508;49.386;8.370;2023-04-24T10:02:16;3.53;;;2.25;;
31990;SDS011;18508;49.386;8.370;2023-04-24T10:04:53;4.13;;;2.20;;
31990;SDS011;18508;49.386;8.370;2023-04-24T10:07:22;2.50;;;1.40;;
31990;SDS011;18508;49.386;8.370;2023-04-24T10:09:53;1.95;;;1.25;;
31990;SDS011;18508;49.386;8.370;2023-04-24T10:12:23;5.03;;;1.58;;
31990;SDS011;18508;49.386;8.370;2023-04-24T10:14:53;2.03;;;1.23;;
31990;SDS011;18508;49.386;8.370;2023-04-24T10:17:22;2.85;;;1.38;;
31990;SDS011;18508;49.386;8.370;2023-04-24T10:19:52;2.40;;;1.40;;
31990;SDS011;18508;49.386;8.370;2023-04-24T10:22:22;3.80;;;1.35;;
31990;SDS011;18508;49.386;8.370;2023-04-24T10:24:51;2.00;;;1.35;;
31990;SDS011;18508;49.386;8.370;2023-04-24T10:27:23;2.70;;;1.30;;
31990;SDS011;18508;49.386;8.370;2023-04-24T10:29:52;3.75;;;1.60;;
31990;SDS011;18508;49.386;8.370;2023-04-24T10:32:22;2.72;;;1.63;;
31990;SDS011;18508;49.386;8.370;2023-04-24T10:34:50;2.40;;;1.60;;
31990;SDS011;18508;49.386;8.370;2023-04-24T10:37:20;3.65;;;1.60;;
31990;SDS011;18508;49.386;8.370;2023-04-24T10:39:48;3.35;;;1.80;;
31990;SDS011;18508;49.386;8.370;2023-04-24T10:42:18;2.70;;;1.70;;
31990;SDS011;18508;49.386;8.370;2023-04-24T10:44:51;3.67;;;1.45;;
31990;SDS011;18508;49.386;8.370;2023-04-24T10:47:25;3.25;;;1.58;;
31990;SDS011;18508;49.386;8.370;2023-04-24T10:49:57;4.60;;;2.03;;
31990;SDS011;18508;49.386;8.370;2023-04-24T10:55:13;3.28;;;1.95;;
31990;SDS011;18508;49.386;8.370;2023-04-24T11:00:30;3.67;;;2.00;;
31990;SDS011;18508;49.386;8.370;2023-04-24T11:03:00;4.05;;;2.47;;
31990;SDS011;18508;49.386;8.370;2023-04-24T11:05:50;4.60;;;2.20;;
31990;SDS011;18508;49.386;8.370;2023-04-24T11:08:24;3.55;;;2.42;;
31990;SDS011;18508;49.386;8.370;2023-04-24T11:13:28;6.88;;;2.55;;
31990;SDS011;18508;49.386;8.370;2023-04-24T11:16:43;3.72;;;2.47;;
31990;SDS011;18508;49.386;8.370;2023-04-24T11:19:21;5.25;;;2.38;;
31990;SDS011;18508;49.386;8.370;2023-04-24T11:21:55;6.32;;;2.50;;
31990;SDS011;18508;49.386;8.370;2023-04-24T11:24:30;7.57;;;3.63;;
31990;SDS011;18508;49.386;8.370;2023-04-24T11:27:04;5.05;;;2.58;;
31990;SDS011;18508;49.386;8.370;2023-04-24T11:29:44;5.20;;;2.40;;
31990;SDS011;18508;49.386;8.370;2023-04-24T11:32:16;5.78;;;2.67;;
31990;SDS011;18508;49.386;8.370;2023-04-24T11:34:54;7.18;;;2.63;;
31990;SDS011;18508;49.386;8.370;2023-04-24T11:37:24;6.53;;;2.70;;
31990;SDS011;18508;49.386;8.370;2023-04-24T11:39:56;5.03;;;2.30;;
31990;SDS011;18508;49.386;8.370;2023-04-24T11:42:27;4.60;;;2.92;;
31990;SDS011;18508;49.386;8.370;2023-04-24T11:44:56;4.28;;;2.72;;
31990;SDS011;18508;49.386;8.370;2023-04-24T11:47:31;4.63;;;2.80;;
31990;SDS011;18508;49.386;8.370;2023-04-24T11:50:01;5.65;;;3.10;;
31990;SDS011;18508;49.386;8.370;2023-04-24T11:55:05;4.68;;;2.72;;
31990;SDS011;18508;49.386;8.370;2023-04-24T11:57:35;4.03;;;2.65;;
31990;SDS011;18508;49.386;8.370;2023-04-24T12:00:04;3.58;;;2.60;;
31990;SDS011;18508;49.386;8.370;2023-04-24T12:02:36;5.75;;;3.00;;
31990;SDS011;18508;49.386;8.370;2023-04-24T12:05:06;5.13;;;3.13;;
31990;SDS011;18508;49.386;8.370;2023-04-24T12:07:40;3.92;;;2.78;;
31990;SDS011;18508;49.386;8.370;2023-04-24T12:10:09;6.88;;;3.08;;
31990;SDS011;18508;49.386;8.370;2023-04-24T12:12:38;5.45;;;2.80;;
31990;SDS011;18508;49.386;8.370;2023-04-24T12:15:07;3.95;;;2.67;;
31990;SDS011;18508;49.386;8.370;2023-04-24T12:17:41;4.43;;;3.07;;
31990;SDS011;18508;49.386;8.370;2023-04-24T12:20:10;5.05;;;3.00;;
31990;SDS011;18508;49.386;8.370;2023-04-24T12:22:42;6.50;;;3.35;;
31990;SDS011;18508;49.386;8.370;2023-04-24T12:25:13;4.47;;;2.35;;
31990;SDS011;18508;49.386;8.370;2023-04-24T12:27:42;7.32;;;3.22;;
31990;SDS011;18508;49.386;8.370;2023-04-24T12:30:12;4.13;;;2.60;;
31990;SDS011;18508;49.386;8.370;2023-04-24T12:32:43;4.53;;;2.40;;
31990;SDS011;18508;49.386;8.370;2023-04-24T12:35:14;4.80;;;2.55;;
31990;SDS011;18508;49.386;8.370;2023-04-24T12:37:47;5.22;;;2.72;;
31990;SDS011;18508;49.386;8.370;2023-04-24T12:40:17;4.60;;;2.47;;
31990;SDS011;18508;49.386;8.370;2023-04-24T12:42:46;4.97;;;2.50;;
31990;SDS011;18508;49.386;8.370;2023-04-24T12:45:15;6.38;;;2.88;;
31990;SDS011;18508;49.386;8.370;2023-04-24T12:47:46;4.80;;;2.47;;
31990;SDS011;18508;49.386;8.370;2023-04-24T12:50:16;3.70;;;2.55;;
31990;SDS011;18508;49.386;8.370;2023-04-24T12:52:45;5.93;;;2.80;;
31990;SDS011;18508;49.386;8.370;2023-04-24T12:55:13;5.68;;;2.90;;
31990;SDS011;18508;49.386;8.370;2023-04-24T12:57:41;4.60;;;2.60;;
31990;SDS011;18508;49.386;8.370;2023-04-24T13:00:10;5.30;;;2.53;;
31990;SDS011;18508;49.386;8.370;2023-04-24T13:02:39;4.53;;;2.70;;
31990;SDS011;18508;49.386;8.370;2023-04-24T13:05:09;4.00;;;2.35;;
31990;SDS011;18508;49.386;8.370;2023-04-24T13:07:40;4.05;;;2.40;;
31990;SDS011;18508;49.386;8.370;2023-04-24T13:10:08;4.97;;;2.40;;
31990;SDS011;18508;49.386;8.370;2023-04-24T13:12:37;7.20;;;2.90;;
31990;SDS011;18508;49.386;8.370;2023-04-24T13:15:06;4.47;;;2.72;;
31990;SDS011;18508;49.386;8.370;2023-04-24T13:17:34;4.45;;;2.60;;
31990;SDS011;18508;49.386;8.370;2023-04-24T13:20:03;4.85;;;2.83;;
31990;SDS011;18508;49.386;8.370;2023-04-24T13:22:34;4.93;;;2.70;;
31990;SDS011;18508;49.386;8.370;2023-04-24T13:25:04;5.75;;;3.55;;
31990;SDS011;18508;49.386;8.370;2023-04-24T13:27:33;6.40;;;2.95;;
31990;SDS011;18508;49.386;8.370;2023-04-24T13:30:02;6.22;;;2.97;;
31990;SDS011;18508;49.386;8.370;2023-04-24T13:32:30;3.97;;;2.65;;
31990;SDS011;18508;49.386;8.370;2023-04-24T13:35:01;6.40;;;2.78;;
31990;SDS011;18508;49.386;8.370;2023-04-24T13:37:30;4.07;;;2.42;;
31990;SDS011;18508;49.386;8.370;2023-04-24T13:39:59;3.97;;;2.67;;
31990;SDS011;18508;49.386;8.370;2023-04-24T13:42:27;5.75;;;2.80;;
31990;SDS011;18508;49.386;8.370;2023-04-24T13:44:56;5.13;;;2.78;;
31990;SDS011;18508;49.386;8.370;2023-04-24T13:47:26;4.00;;;2.42;;
31990;SDS011;18508;49.386;8.370;2023-04-24T13:49:54;5.53;;;2.80;;
31990;SDS011;18508;49.386;8.370;2023-04-24T13:52:23;5.20;;;2.67;;
31990;SDS011;18508;49.386;8.370;2023-04-24T13:54:51;6.50;;;2.53;;
31990;SDS011;18508;49.386;8.370;2023-04-24T13:57:23;4.10;;;2.25;;
31990;SDS011;18508;49.386;8.370;2023-04-24T13:59:51;5.32;;;2.95;;
31990;SDS011;18508;49.386;8.370;2023-04-24T14:02:19;5.97;;;3.10;;
31990;SDS011;18508;49.386;8.370;2023-04-24T14:04:48;3.75;;;2.30;;
31990;SDS011;18508;49.386;8.370;2023-04-24T14:07:16;5.70;;;2.50;;
31990;SDS011;18508;49.386;8.370;2023-04-24T14:09:45;4.20;;;2.58;;
31990;SDS011;18508;49.386;8.370;2023-04-24T14:12:13;4.60;;;2.40;;
31990;SDS011;18508;49.386;8.370;2023-04-24T14:14:47;4.07;;;2.28;;
31990;SDS011;18508;49.386;8.370;2023-04-24T14:17:15;4.03;;;2.60;;
31990;SDS011;18508;49.386;8.370;2023-04-24T14:19:44;3.75;;;2.25;;
31990;SDS011;18508;49.386;8.370;2023-04-24T14:22:13;3.90;;;2.55;;
31990;SDS011;18508;49.386;8.370;2023-04-24T14:24:41;6.78;;;2.85;;
31990;SDS011;18508;49.386;8.370;2023-04-24T14:27:10;4.50;;;2.72;;
31990;SDS011;18508;49.386;8.370;2023-04-24T14:29:38;5.35;;;2.80;;
31990;SDS011;18508;49.386;8.370;2023-04-24T14:32:09;4.20;;;2.55;;
31990;SDS011;18508;49.386;8.370;2023-04-24T14:34:37;5.22;;;2.80;;
31990;SDS011;18508;49.386;8.370;2023-04-24T14:37:06;3.70;;;2.58;;
31990;SDS011;18508;49.386;8.370;2023-04-24T14:39:35;4.40;;;2.78;;
31990;SDS011;18508;49.386;8.370;2023-04-24T14:42:03;5.40;;;2.72;;
31990;SDS011;18508;49.386;8.370;2023-04-24T14:44:32;6.22;;;2.53;;
31990;SDS011;18508;49.386;8.370;2023-04-24T14:47:00;3.95;;;2.42;;
31990;SDS011;18508;49.386;8.370;2023-04-24T14:49:30;4.45;;;2.65;;
31990;SDS011;18508;49.386;8.370;2023-04-24T14:51:58;4.15;;;2.42;;
31990;SDS011;18508;49.386;8.370;2023-04-24T14:54:29;4.90;;;2.72;;
31990;SDS011;18508;49.386;8.370;2023-04-24T14:56:58;3.72;;;2.22;;
31990;SDS011;18508;49.386;8.370;2023-04-24T14:59:27;4.53;;;2.25;;
31990;SDS011;18508;49.386;8.370;2023-04-24T15:01:57;6.88;;;2.60;;
31990;SDS011;18508;49.386;8.370;2023-04-24T15:07:12;4.82;;;2.60;;
31990;SDS011;18508;49.386;8.370;2023-04-24T15:09:40;4.90;;;2.85;;
31990;SDS011;18508;49.386;8.370;2023-04-24T15:12:09;5.03;;;2.95;;
31990;SDS011;18508;49.386;8.370;2023-04-24T15:14:38;3.80;;;2.33;;
31990;SDS011;18508;49.386;8.370;2023-04-24T15:17:07;5.07;;;2.78;;
31990;SDS011;18508;49.386;8.370;2023-04-24T15:19:38;4.85;;;2.42;;